sensor_id;sensor_type;location;lat;lon;timestamp;P1;durP1;ratioP1;P2;durP2;ratioP2
2105;SDS011;1059;52.548;13.408;2022-11-15T00:01:17;39.70;;;28.40;;
2105;SDS011;1059;52.548;13.408;2022-11-15T00:03:45;39.10;;;27.47;;
2105;SDS011;1059;52.548;13.408;2022-11-15T00:06:12;41.50;;;27.43;;
2105;SDS011;1059;52.548;13.408;2022-11-15T00:08:39;46.17;;;27.50;;
2105;SDS011;1059;52.548;13.408;2022-11-15T00:11:06;39.23;;;27.30;;
2105;SDS011;1059;52.548;13.408;2022-11-15T00:13:35;40.33;;;28.53;;
2105;SDS011;1059;52.548;13.408;2022-11-15T00:16:02;42.63;;;29.50;;
2105;SDS011;1059;52.548;13.408;2022-11-15T00:18:31;40.83;;;27.13;;
2105;SDS011;1059;52.548;13.408;2022-11-15T00:21:02;42.10;;;28.20;;
2105;SDS011;1059;52.548;13.408;2022-11-15T00:23:30;43.83;;;29.27;;
2105;SDS011;1059;52.548;13.408;2022-11-15T00:25:57;40.13;;;30.10;;
2105;SDS011;1059;52.548;13.408;2022-11-15T00:28:24;49.10;;;29.13;;
2105;SDS011;1059;52.548;13.408;2022-11-15T00:30:52;44.80;;;30.67;;
2105;SDS011;1059;52.548;13.408;2022-11-15T00:33:19;48.37;;;30.67;;
2105;SDS011;1059;52.548;13.408;2022-11-15T00:35:47;44.50;;;29.63;;
2105;SDS011;1059;52.548;13.408;2022-11-15T00:38:14;41.30;;;28.93;;
2105;SDS011;1059;52.548;13.408;2022-11-15T00:40:41;41.47;;;29.30;;
2105;SDS011;1059;52.548;13.408;2022-11-15T00:43:08;45.30;;;29.70;;
2105;SDS011;1059;52.548;13.408;2022-11-15T00:45:35;43.10;;;30.27;;
2105;SDS011;1059;52.548;13.408;2022-11-15T00:48:02;46.00;;;31.23;;
2105;SDS011;1059;52.548;13.408;2022-11-15T00:50:29;46.33;;;30.77;;
2105;SDS011;1059;52.548;13.408;2022-11-15T00:52:57;44.90;;;31.17;;
2105;SDS011;1059;52.548;13.408;2022-11-15T00:55:24;44.87;;;29.40;;
2105;SDS011;1059;52.548;13.408;2022-11-15T00:57:51;45.57;;;30.10;;
2105;SDS011;1059;52.548;13.408;2022-11-15T01:00:18;41.10;;;27.60;;
2105;SDS011;1059;52.548;13.408;2022-11-15T01:02:45;49.70;;;29.47;;
2105;SDS011;1059;52.548;13.408;2022-11-15T01:05:12;41.60;;;30.20;;
2105;SDS011;1059;52.548;13.408;2022-11-15T01:07:38;43.93;;;28.73;;
2105;SDS011;1059;52.548;13.408;2022-11-15T01:10:07;47.50;;;30.37;;
2105;SDS011;1059;52.548;13.408;2022-11-15T01:12:35;45.10;;;31.17;;
2105;SDS011;1059;52.548;13.408;2022-11-15T01:15:02;41.87;;;29.47;;
2105;SDS011;1059;52.548;13.408;2022-11-15T01:17:30;44.33;;;29.70;;
2105;SDS011;1059;52.548;13.408;2022-11-15T01:19:57;46.27;;;30.40;;
2105;SDS011;1059;52.548;13.408;2022-11-15T01:22:24;45.10;;;30.40;;
2105;SDS011;1059;52.548;13.408;2022-11-15T01:24:51;48.07;;;32.47;;
2105;SDS011;1059;52.548;13.408;2022-11-15T01:27:19;44.93;;;29.47;;
2105;SDS011;1059;52.548;13.408;2022-11-15T01:29:46;43.90;;;28.03;;
2105;SDS011;1059;52.548;13.408;2022-11-15T01:32:13;47.87;;;31.10;;
2105;SDS011;1059;52.548;13.408;2022-11-15T01:34:40;39.67;;;27.53;;
2105;SDS011;1059;52.548;13.408;2022-11-15T01:37:07;45.90;;;29.53;;
2105;SDS011;1059;52.548;13.408;2022-11-15T01:39:34;47.30;;;30.90;;
2105;SDS011;1059;52.548;13.408;2022-11-15T01:42:01;40.90;;;28.83;;
2105;SDS011;1059;52.548;13.408;2022-11-15T01:44:34;47.37;;;31.27;;
2105;SDS011;1059;52.548;13.408;2022-11-15T01:47:07;45.20;;;30.30;;
2105;SDS011;1059;52.548;13.408;2022-11-15T01:49:38;41.50;;;27.90;;
2105;SDS011;1059;52.548;13.408;2022-11-15T01:52:09;44.53;;;30.43;;
2105;SDS011;1059;52.548;13.408;2022-11-15T01:54:39;45.73;;;28.93;;
2105;SDS011;1059;52.548;13.408;2022-11-15T01:57:07;44.07;;;29.47;;
2105;SDS011;1059;52.548;13.408;2022-11-15T01:59:37;46.87;;;30.27;;
2105;SDS011;1059;52.548;13.408;2022-11-15T02:02:06;45.20;;;30.37;;
2105;SDS011;1059;52.548;13.408;2022-11-15T02:04:34;49.43;;;31.33;;
2105;SDS011;1059;52.548;13.408;2022-11-15T02:07:05;46.67;;;30.60;;
2105;SDS011;1059;52.548;13.408;2022-11-15T02:09:35;43.50;;;28.80;;
2105;SDS011;1059;52.548;13.408;2022-11-15T02:12:03;44.00;;;28.70;;
2105;SDS011;1059;52.548;13.408;2022-11-15T02:14:31;52.00;;;30.87;;
2105;SDS011;1059;52.548;13.408;2022-11-15T02:17:02;46.67;;;32.97;;
2105;SDS011;1059;52.548;13.408;2022-11-15T02:19:51;45.43;;;29.63;;
2105;SDS011;1059;52.548;13.408;2022-11-15T02:22:37;44.43;;;31.17;;
2105;SDS011;1059;52.548;13.408;2022-11-15T02:25:22;47.70;;;31.83;;
2105;SDS011;1059;52.548;13.408;2022-11-15T02:28:10;50.17;;;31.80;;
2105;SDS011;1059;52.548;13.408;2022-11-15T02:30:55;42.83;;;29.37;;
2105;SDS011;1059;52.548;13.408;2022-11-15T02:33:30;44.20;;;29.40;;
2105;SDS011;1059;52.548;13.408;2022-11-15T02:36:03;46.83;;;30.47;;
2105;SDS011;1059;52.548;13.408;2022-11-15T02:38:37;41.00;;;28.83;;
2105;SDS011;1059;52.548;13.408;2022-11-15T02:41:11;47.00;;;29.63;;
2105;SDS011;1059;52.548;13.408;2022-11-15T02:43:43;49.73;;;31.47;;
2105;SDS011;1059;52.548;13.408;2022-11-15T02:46:25;47.07;;;30.30;;
2105;SDS011;1059;52.548;13.408;2022-11-15T02:49:15;48.60;;;30.30;;
2105;SDS011;1059;52.548;13.408;2022-11-15T02:51:43;48.60;;;30.80;;
2105;SDS011;1059;52.548;13.408;2022-11-15T02:54:14;47.47;;;30.83;;
2105;SDS011;1059;52.548;13.408;2022-11-15T02:56:44;46.60;;;28.50;;
2105;SDS011;1059;52.548;13.408;2022-11-15T02:59:13;46.27;;;28.97;;
2105;SDS011;1059;52.548;13.408;2022-11-15T03:02:06;45.40;;;29.80;;
2105;SDS011;1059;52.548;13.408;2022-11-15T03:04:44;41.60;;;27.73;;
2105;SDS011;1059;52.548;13.408;2022-11-15T03:07:19;45.47;;;30.70;;
2105;SDS011;1059;52.548;13.408;2022-11-15T03:09:55;46.47;;;28.27;;
2105;SDS011;1059;52.548;13.408;2022-11-15T03:12:30;43.10;;;28.17;;
2105;SDS011;1059;52.548;13.408;2022-11-15T03:15:04;48.50;;;30.30;;
2105;SDS011;1059;52.548;13.408;2022-11-15T03:17:35;48.20;;;30.30;;
2105;SDS011;1059;52.548;13.408;2022-11-15T03:20:07;47.40;;;30.50;;
2105;SDS011;1059;52.548;13.408;2022-11-15T03:22:37;49.70;;;29.73;;
2105;SDS011;1059;52.548;13.408;2022-11-15T03:25:08;40.50;;;27.70;;
2105;SDS011;1059;52.548;13.408;2022-11-15T03:27:41;45.97;;;30.30;;
2105;SDS011;1059;52.548;13.408;2022-11-15T03:30:12;43.23;;;29.57;;
2105;SDS011;1059;52.548;13.408;2022-11-15T03:32:44;41.57;;;28.80;;
2105;SDS011;1059;52.548;13.408;2022-11-15T03:35:14;41.47;;;28.80;;
2105;SDS011;1059;52.548;13.408;2022-11-15T03:37:45;44.23;;;29.60;;
2105;SDS011;1059;52.548;13.408;2022-11-15T03:40:16;41.73;;;28.97;;
2105;SDS011;1059;52.548;13.408;2022-11-15T03:42:46;43.50;;;29.60;;
2105;SDS011;1059;52.548;13.408;2022-11-15T03:45:22;42.07;;;28.73;;
2105;SDS011;1059;52.548;13.408;2022-11-15T03:47:57;41.70;;;28.00;;
2105;SDS011;1059;52.548;13.408;2022-11-15T03:50:27;48.37;;;30.70;;
2105;SDS011;1059;52.548;13.408;2022-11-15T03:52:55;40.93;;;29.07;;
2105;SDS011;1059;52.548;13.408;2022-11-15T03:55:23;44.53;;;30.03;;
2105;SDS011;1059;52.548;13.408;2022-11-15T03:57:58;42.13;;;28.67;;
2105;SDS011;1059;52.548;13.408;2022-11-15T04:00:26;44.30;;;27.40;;
2105;SDS011;1059;52.548;13.408;2022-11-15T04:02:55;40.27;;;26.83;;
2105;SDS011;1059;52.548;13.408;2022-11-15T04:05:22;44.70;;;30.57;;
2105;SDS011;1059;52.548;13.408;2022-11-15T04:07:48;41.30;;;28.03;;
2105;SDS011;1059;52.548;13.408;2022-11-15T04:10:15;45.80;;;31.77;;
2105;SDS011;1059;52.548;13.408;2022-11-15T04:12:43;44.83;;;29.10;;
2105;SDS011;1059;52.548;13.408;2022-11-15T04:15:14;45.67;;;28.83;;
2105;SDS011;1059;52.548;13.408;2022-11-15T04:17:42;42.60;;;27.93;;
2105;SDS011;1059;52.548;13.408;2022-11-15T04:20:13;44.20;;;28.43;;
2105;SDS011;1059;52.548;13.408;2022-11-15T04:22:59;42.80;;;28.90;;
2105;SDS011;1059;52.548;13.408;2022-11-15T04:25:44;43.87;;;28.97;;
2105;SDS011;1059;52.548;13.408;2022-11-15T04:28:13;46.10;;;27.63;;
2105;SDS011;1059;52.548;13.408;2022-11-15T04:30:40;41.47;;;27.53;;
2105;SDS011;1059;52.548;13.408;2022-11-15T04:33:07;44.37;;;28.70;;
2105;SDS011;1059;52.548;13.408;2022-11-15T04:35:35;40.60;;;29.00;;
2105;SDS011;1059;52.548;13.408;2022-11-15T04:38:03;43.53;;;28.37;;
2105;SDS011;1059;52.548;13.408;2022-11-15T04:40:30;41.23;;;28.30;;
2105;SDS011;1059;52.548;13.408;2022-11-15T04:42:57;42.87;;;26.20;;
2105;SDS011;1059;52.548;13.408;2022-11-15T04:45:24;41.40;;;27.47;;
2105;SDS011;1059;52.548;13.408;2022-11-15T04:47:51;43.80;;;28.17;;
2105;SDS011;1059;52.548;13.408;2022-11-15T04:50:18;42.07;;;29.10;;
2105;SDS011;1059;52.548;13.408;2022-11-15T04:52:51;45.77;;;29.37;;
2105;SDS011;1059;52.548;13.408;2022-11-15T04:55:19;41.73;;;29.03;;
2105;SDS011;1059;52.548;13.408;2022-11-15T04:57:46;41.77;;;28.37;;
2105;SDS011;1059;52.548;13.408;2022-11-15T05:00:15;46.50;;;28.10;;
2105;SDS011;1059;52.548;13.408;2022-11-15T05:02:43;41.80;;;27.03;;
2105;SDS011;1059;52.548;13.408;2022-11-15T05:05:27;40.77;;;26.90;;
2105;SDS011;1059;52.548;13.408;2022-11-15T05:07:55;43.27;;;27.37;;
2105;SDS011;1059;52.548;13.408;2022-11-15T05:10:22;40.33;;;28.17;;
2105;SDS011;1059;52.548;13.408;2022-11-15T05:12:49;39.80;;;26.80;;
2105;SDS011;1059;52.548;13.408;2022-11-15T05:15:16;41.73;;;27.63;;
2105;SDS011;1059;52.548;13.408;2022-11-15T05:17:43;37.20;;;26.43;;
2105;SDS011;1059;52.548;13.408;2022-11-15T05:20:10;41.37;;;26.57;;
2105;SDS011;1059;52.548;13.408;2022-11-15T05:22:37;40.60;;;26.90;;
2105;SDS011;1059;52.548;13.408;2022-11-15T05:25:06;40.63;;;26.00;;
2105;SDS011;1059;52.548;13.408;2022-11-15T05:27:34;41.20;;;27.50;;
2105;SDS011;1059;52.548;13.408;2022-11-15T05:30:01;42.80;;;28.17;;
2105;SDS011;1059;52.548;13.408;2022-11-15T05:32:28;40.90;;;27.20;;
2105;SDS011;1059;52.548;13.408;2022-11-15T05:34:55;38.57;;;26.70;;
2105;SDS011;1059;52.548;13.408;2022-11-15T05:37:22;41.97;;;27.97;;
2105;SDS011;1059;52.548;13.408;2022-11-15T05:39:49;42.87;;;26.63;;
2105;SDS011;1059;52.548;13.408;2022-11-15T05:42:17;42.67;;;27.40;;
2105;SDS011;1059;52.548;13.408;2022-11-15T05:44:46;36.60;;;26.40;;
2105;SDS011;1059;52.548;13.408;2022-11-15T05:47:16;45.73;;;27.47;;
2105;SDS011;1059;52.548;13.408;2022-11-15T05:49:46;39.27;;;26.77;;
2105;SDS011;1059;52.548;13.408;2022-11-15T05:52:16;43.27;;;27.40;;
2105;SDS011;1059;52.548;13.408;2022-11-15T05:54:48;41.20;;;27.53;;
2105;SDS011;1059;52.548;13.408;2022-11-15T05:57:17;39.00;;;27.40;;
2105;SDS011;1059;52.548;13.408;2022-11-15T05:59:45;41.47;;;28.17;;
2105;SDS011;1059;52.548;13.408;2022-11-15T06:02:12;41.50;;;28.00;;
2105;SDS011;1059;52.548;13.408;2022-11-15T06:04:38;42.70;;;26.70;;
2105;SDS011;1059;52.548;13.408;2022-11-15T06:07:05;41.30;;;27.33;;
2105;SDS011;1059;52.548;13.408;2022-11-15T06:09:32;40.27;;;27.27;;
2105;SDS011;1059;52.548;13.408;2022-11-15T06:11:59;44.53;;;27.73;;
2105;SDS011;1059;52.548;13.408;2022-11-15T06:14:27;37.80;;;26.67;;
2105;SDS011;1059;52.548;13.408;2022-11-15T06:16:54;39.90;;;27.70;;
2105;SDS011;1059;52.548;13.408;2022-11-15T06:19:21;39.10;;;27.00;;
2105;SDS011;1059;52.548;13.408;2022-11-15T06:21:48;38.77;;;25.93;;
2105;SDS011;1059;52.548;13.408;2022-11-15T06:24:15;39.80;;;27.37;;
2105;SDS011;1059;52.548;13.408;2022-11-15T06:26:42;39.93;;;27.60;;
2105;SDS011;1059;52.548;13.408;2022-11-15T06:29:09;37.80;;;26.10;;
2105;SDS011;1059;52.548;13.408;2022-11-15T06:31:37;38.70;;;28.47;;
2105;SDS011;1059;52.548;13.408;2022-11-15T06:34:04;40.57;;;27.20;;
2105;SDS011;1059;52.548;13.408;2022-11-15T06:36:33;43.43;;;27.80;;
2105;SDS011;1059;52.548;13.408;2022-11-15T06:39:00;39.70;;;27.70;;
2105;SDS011;1059;52.548;13.408;2022-11-15T06:41:28;42.53;;;29.30;;
2105;SDS011;1059;52.548;13.408;2022-11-15T06:43:54;45.27;;;28.67;;
2105;SDS011;1059;52.548;13.408;2022-11-15T06:46:22;45.03;;;29.83;;
2105;SDS011;1059;52.548;13.408;2022-11-15T06:48:51;45.97;;;28.33;;
2105;SDS011;1059;52.548;13.408;2022-11-15T06:51:18;40.60;;;27.10;;
2105;SDS011;1059;52.548;13.408;2022-11-15T06:53:46;43.87;;;27.50;;
2105;SDS011;1059;52.548;13.408;2022-11-15T06:56:12;52.70;;;32.53;;
2105;SDS011;1059;52.548;13.408;2022-11-15T06:58:39;45.37;;;30.73;;
2105;SDS011;1059;52.548;13.408;2022-11-15T07:01:08;39.73;;;28.20;;
2105;SDS011;1059;52.548;13.408;2022-11-15T07:03:38;46.13;;;29.80;;
2105;SDS011;1059;52.548;13.408;2022-11-15T07:06:25;46.37;;;31.13;;
2105;SDS011;1059;52.548;13.408;2022-11-15T07:09:07;51.03;;;31.93;;
2105;SDS011;1059;52.548;13.408;2022-11-15T07:11:34;47.83;;;31.07;;
2105;SDS011;1059;52.548;13.408;2022-11-15T07:14:01;44.47;;;28.77;;
2105;SDS011;1059;52.548;13.408;2022-11-15T07:16:28;40.03;;;28.50;;
2105;SDS011;1059;52.548;13.408;2022-11-15T07:18:55;39.73;;;28.03;;
2105;SDS011;1059;52.548;13.408;2022-11-15T07:21:22;37.07;;;26.70;;
2105;SDS011;1059;52.548;13.408;2022-11-15T07:23:50;36.97;;;27.07;;
2105;SDS011;1059;52.548;13.408;2022-11-15T07:26:17;44.07;;;28.30;;
2105;SDS011;1059;52.548;13.408;2022-11-15T07:28:44;38.03;;;27.70;;
2105;SDS011;1059;52.548;13.408;2022-11-15T07:31:11;42.53;;;27.40;;
2105;SDS011;1059;52.548;13.408;2022-11-15T07:33:37;39.77;;;26.90;;
2105;SDS011;1059;52.548;13.408;2022-11-15T07:36:05;41.63;;;26.93;;
2105;SDS011;1059;52.548;13.408;2022-11-15T07:38:35;36.27;;;26.80;;
2105;SDS011;1059;52.548;13.408;2022-11-15T07:41:03;39.97;;;27.17;;
2105;SDS011;1059;52.548;13.408;2022-11-15T07:43:31;38.80;;;28.10;;
2105;SDS011;1059;52.548;13.408;2022-11-15T07:45:59;38.60;;;26.77;;
2105;SDS011;1059;52.548;13.408;2022-11-15T07:48:30;39.17;;;27.97;;
2105;SDS011;1059;52.548;13.408;2022-11-15T07:50:57;39.53;;;25.90;;
2105;SDS011;1059;52.548;13.408;2022-11-15T07:53:24;38.67;;;26.90;;
2105;SDS011;1059;52.548;13.408;2022-11-15T07:55:52;39.30;;;27.00;;
2105;SDS011;1059;52.548;13.408;2022-11-15T07:58:19;36.83;;;25.70;;
2105;SDS011;1059;52.548;13.408;2022-11-15T08:00:46;41.53;;;26.80;;
2105;SDS011;1059;52.548;13.408;2022-11-15T08:03:14;41.37;;;27.50;;
2105;SDS011;1059;52.548;13.408;2022-11-15T08:05:42;38.40;;;25.73;;
2105;SDS011;1059;52.548;13.408;2022-11-15T08:08:10;41.67;;;28.23;;
2105;SDS011;1059;52.548;13.408;2022-11-15T08:10:37;39.20;;;25.53;;
2105;SDS011;1059;52.548;13.408;2022-11-15T08:13:06;35.80;;;25.90;;
2105;SDS011;1059;52.548;13.408;2022-11-15T08:15:35;39.10;;;25.87;;
2105;SDS011;1059;52.548;13.408;2022-11-15T08:18:06;42.20;;;25.90;;
2105;SDS011;1059;52.548;13.408;2022-11-15T08:20:35;39.90;;;28.20;;
2105;SDS011;1059;52.548;13.408;2022-11-15T08:23:03;41.43;;;25.67;;
2105;SDS011;1059;52.548;13.408;2022-11-15T08:25:31;38.50;;;28.17;;
2105;SDS011;1059;52.548;13.408;2022-11-15T08:27:59;35.60;;;25.27;;
2105;SDS011;1059;52.548;13.408;2022-11-15T08:30:29;37.80;;;24.80;;
2105;SDS011;1059;52.548;13.408;2022-11-15T08:32:57;35.23;;;25.23;;
2105;SDS011;1059;52.548;13.408;2022-11-15T08:35:24;37.50;;;24.20;;
2105;SDS011;1059;52.548;13.408;2022-11-15T08:37:52;33.53;;;24.63;;
2105;SDS011;1059;52.548;13.408;2022-11-15T08:40:19;33.80;;;24.40;;
2105;SDS011;1059;52.548;13.408;2022-11-15T08:42:47;41.13;;;25.13;;
2105;SDS011;1059;52.548;13.408;2022-11-15T08:45:14;30.03;;;23.00;;
2105;SDS011;1059;52.548;13.408;2022-11-15T08:47:43;34.73;;;21.10;;
2105;SDS011;1059;52.548;13.408;2022-11-15T08:50:10;36.93;;;23.97;;
2105;SDS011;1059;52.548;13.408;2022-11-15T08:52:37;36.73;;;23.43;;
2105;SDS011;1059;52.548;13.408;2022-11-15T08:55:04;30.70;;;22.47;;
2105;SDS011;1059;52.548;13.408;2022-11-15T08:57:32;30.90;;;21.23;;
2105;SDS011;1059;52.548;13.408;2022-11-15T08:59:59;33.40;;;22.73;;
2105;SDS011;1059;52.548;13.408;2022-11-15T09:02:26;31.60;;;20.60;;
2105;SDS011;1059;52.548;13.408;2022-11-15T09:04:55;35.87;;;24.43;;
2105;SDS011;1059;52.548;13.408;2022-11-15T09:07:22;33.33;;;23.50;;
2105;SDS011;1059;52.548;13.408;2022-11-15T09:09:49;31.80;;;22.80;;
2105;SDS011;1059;52.548;13.408;2022-11-15T09:12:15;31.30;;;21.70;;
2105;SDS011;1059;52.548;13.408;2022-11-15T09:14:42;36.83;;;22.03;;
2105;SDS011;1059;52.548;13.408;2022-11-15T09:17:09;33.87;;;24.30;;
2105;SDS011;1059;52.548;13.408;2022-11-15T09:19:36;32.93;;;23.70;;
2105;SDS011;1059;52.548;13.408;2022-11-15T09:22:06;33.80;;;23.10;;
2105;SDS011;1059;52.548;13.408;2022-11-15T09:24:33;29.87;;;22.67;;
2105;SDS011;1059;52.548;13.408;2022-11-15T09:27:00;28.77;;;21.30;;
2105;SDS011;1059;52.548;13.408;2022-11-15T09:29:27;27.33;;;21.00;;
2105;SDS011;1059;52.548;13.408;2022-11-15T09:31:54;32.27;;;21.73;;
2105;SDS011;1059;52.548;13.408;2022-11-15T09:34:21;31.53;;;21.93;;
2105;SDS011;1059;52.548;13.408;2022-11-15T09:36:48;34.07;;;22.13;;
2105;SDS011;1059;52.548;13.408;2022-11-15T09:39:16;33.50;;;24.07;;
2105;SDS011;1059;52.548;13.408;2022-11-15T09:41:57;30.97;;;23.27;;
2105;SDS011;1059;52.548;13.408;2022-11-15T09:44:46;27.30;;;20.83;;
2105;SDS011;1059;52.548;13.408;2022-11-15T09:50:17;29.50;;;21.37;;
2105;SDS011;1059;52.548;13.408;2022-11-15T09:52:57;34.60;;;20.50;;
2105;SDS011;1059;52.548;13.408;2022-11-15T09:55:34;26.60;;;19.33;;
2105;SDS011;1059;52.548;13.408;2022-11-15T09:58:09;28.70;;;18.93;;
2105;SDS011;1059;52.548;13.408;2022-11-15T10:00:44;26.43;;;18.80;;
2105;SDS011;1059;52.548;13.408;2022-11-15T10:03:14;23.93;;;18.40;;
2105;SDS011;1059;52.548;13.408;2022-11-15T10:05:43;23.33;;;16.93;;
2105;SDS011;1059;52.548;13.408;2022-11-15T10:08:16;23.47;;;17.10;;
2105;SDS011;1059;52.548;13.408;2022-11-15T10:10:56;22.77;;;16.87;;
2105;SDS011;1059;52.548;13.408;2022-11-15T10:13:25;22.17;;;16.60;;
2105;SDS011;1059;52.548;13.408;2022-11-15T10:15:54;22.80;;;16.97;;
2105;SDS011;1059;52.548;13.408;2022-11-15T10:18:34;21.87;;;16.07;;
2105;SDS011;1059;52.548;13.408;2022-11-15T10:21:02;23.37;;;17.33;;
2105;SDS011;1059;52.548;13.408;2022-11-15T10:23:41;18.73;;;15.90;;
2105;SDS011;1059;52.548;13.408;2022-11-15T10:26:11;24.17;;;16.63;;
2105;SDS011;1059;52.548;13.408;2022-11-15T10:28:41;21.13;;;17.23;;
2105;SDS011;1059;52.548;13.408;2022-11-15T10:31:21;19.00;;;16.03;;
2105;SDS011;1059;52.548;13.408;2022-11-15T10:33:49;20.50;;;15.57;;
2105;SDS011;1059;52.548;13.408;2022-11-15T10:36:23;21.23;;;15.80;;
2105;SDS011;1059;52.548;13.408;2022-11-15T10:38:51;22.93;;;15.63;;
2105;SDS011;1059;52.548;13.408;2022-11-15T10:41:21;19.30;;;15.20;;
2105;SDS011;1059;52.548;13.408;2022-11-15T10:44:10;20.93;;;16.57;;
2105;SDS011;1059;52.548;13.408;2022-11-15T10:46:50;21.73;;;17.63;;
2105;SDS011;1059;52.548;13.408;2022-11-15T10:49:31;22.30;;;15.80;;
2105;SDS011;1059;52.548;13.408;2022-11-15T10:52:00;20.00;;;16.17;;
2105;SDS011;1059;52.548;13.408;2022-11-15T10:54:34;23.73;;;16.07;;
2105;SDS011;1059;52.548;13.408;2022-11-15T10:57:07;21.47;;;16.00;;
2105;SDS011;1059;52.548;13.408;2022-11-15T10:59:38;22.90;;;16.30;;
2105;SDS011;1059;52.548;13.408;2022-11-15T11:04:54;20.73;;;16.17;;
2105;SDS011;1059;52.548;13.408;2022-11-15T11:07:21;24.47;;;16.73;;
2105;SDS011;1059;52.548;13.408;2022-11-15T11:09:56;22.67;;;17.07;;
2105;SDS011;1059;52.548;13.408;2022-11-15T11:12:30;28.30;;;18.40;;
2105;SDS011;1059;52.548;13.408;2022-11-15T11:14:59;23.17;;;18.03;;
2105;SDS011;1059;52.548;13.408;2022-11-15T11:17:33;23.33;;;17.00;;
2105;SDS011;1059;52.548;13.408;2022-11-15T11:20:10;20.73;;;16.17;;
2105;SDS011;1059;52.548;13.408;2022-11-15T11:22:51;22.17;;;16.63;;
2105;SDS011;1059;52.548;13.408;2022-11-15T11:25:28;18.70;;;15.60;;
2105;SDS011;1059;52.548;13.408;2022-11-15T11:28:09;22.43;;;17.20;;
2105;SDS011;1059;52.548;13.408;2022-11-15T11:30:47;19.83;;;15.83;;
2105;SDS011;1059;52.548;13.408;2022-11-15T11:33:24;25.10;;;15.70;;
2105;SDS011;1059;52.548;13.408;2022-11-15T11:35:59;19.07;;;15.90;;
2105;SDS011;1059;52.548;13.408;2022-11-15T11:38:49;21.00;;;15.80;;
2105;SDS011;1059;52.548;13.408;2022-11-15T11:44:25;20.50;;;16.77;;
2105;SDS011;1059;52.548;13.408;2022-11-15T11:47:10;19.27;;;15.07;;
2105;SDS011;1059;52.548;13.408;2022-11-15T11:49:40;19.47;;;15.30;;
2105;SDS011;1059;52.548;13.408;2022-11-15T11:52:13;22.00;;;15.37;;
2105;SDS011;1059;52.548;13.408;2022-11-15T11:54:46;19.20;;;15.20;;
2105;SDS011;1059;52.548;13.408;2022-11-15T11:57:23;19.17;;;14.57;;
2105;SDS011;1059;52.548;13.408;2022-11-15T12:00:01;16.70;;;14.03;;
2105;SDS011;1059;52.548;13.408;2022-11-15T12:02:31;15.73;;;14.00;;
2105;SDS011;1059;52.548;13.408;2022-11-15T12:05:04;16.93;;;13.50;;
2105;SDS011;1059;52.548;13.408;2022-11-15T12:07:36;22.80;;;17.30;;
2105;SDS011;1059;52.548;13.408;2022-11-15T12:10:11;16.50;;;12.63;;
2105;SDS011;1059;52.548;13.408;2022-11-15T12:12:44;14.63;;;12.47;;
2105;SDS011;1059;52.548;13.408;2022-11-15T12:15:18;14.97;;;12.77;;
2105;SDS011;1059;52.548;13.408;2022-11-15T12:17:48;17.50;;;13.73;;
2105;SDS011;1059;52.548;13.408;2022-11-15T12:20:16;15.03;;;13.47;;
2105;SDS011;1059;52.548;13.408;2022-11-15T12:22:47;15.80;;;14.30;;
2105;SDS011;1059;52.548;13.408;2022-11-15T12:25:21;13.47;;;12.07;;
2105;SDS011;1059;52.548;13.408;2022-11-15T12:27:53;18.03;;;15.63;;
2105;SDS011;1059;52.548;13.408;2022-11-15T12:30:25;15.47;;;13.30;;
2105;SDS011;1059;52.548;13.408;2022-11-15T12:32:57;16.13;;;13.13;;
2105;SDS011;1059;52.548;13.408;2022-11-15T12:35:27;15.57;;;12.97;;
2105;SDS011;1059;52.548;13.408;2022-11-15T12:37:58;21.27;;;12.90;;
2105;SDS011;1059;52.548;13.408;2022-11-15T12:40:26;18.10;;;13.17;;
2105;SDS011;1059;52.548;13.408;2022-11-15T12:43:03;13.17;;;11.77;;
2105;SDS011;1059;52.548;13.408;2022-11-15T12:45:52;14.23;;;12.67;;
2105;SDS011;1059;52.548;13.408;2022-11-15T12:51:12;14.93;;;11.90;;
2105;SDS011;1059;52.548;13.408;2022-11-15T12:53:39;18.10;;;13.63;;
2105;SDS011;1059;52.548;13.408;2022-11-15T12:56:17;20.10;;;15.07;;
2105;SDS011;1059;52.548;13.408;2022-11-15T12:58:49;15.20;;;13.70;;
2105;SDS011;1059;52.548;13.408;2022-11-15T13:04:25;14.90;;;11.93;;
2105;SDS011;1059;52.548;13.408;2022-11-15T13:06:54;15.20;;;12.27;;
2105;SDS011;1059;52.548;13.408;2022-11-15T13:18:18;12.87;;;11.53;;
2105;SDS011;1059;52.548;13.408;2022-11-15T13:21:01;16.53;;;12.67;;
2105;SDS011;1059;52.548;13.408;2022-11-15T13:23:53;13.37;;;11.97;;
2105;SDS011;1059;52.548;13.408;2022-11-15T13:26:20;15.83;;;12.53;;
2105;SDS011;1059;52.548;13.408;2022-11-15T13:28:49;13.67;;;12.23;;
2105;SDS011;1059;52.548;13.408;2022-11-15T13:31:24;13.20;;;11.80;;
2105;SDS011;1059;52.548;13.408;2022-11-15T13:33:55;15.40;;;13.50;;
2105;SDS011;1059;52.548;13.408;2022-11-15T13:36:26;17.53;;;12.90;;
2105;SDS011;1059;52.548;13.408;2022-11-15T13:38:56;16.50;;;13.67;;
2105;SDS011;1059;52.548;13.408;2022-11-15T13:41:25;15.57;;;12.90;;
2105;SDS011;1059;52.548;13.408;2022-11-15T13:43:55;14.73;;;12.33;;
2105;SDS011;1059;52.548;13.408;2022-11-15T13:46:23;18.07;;;13.13;;
2105;SDS011;1059;52.548;13.408;2022-11-15T13:48:51;20.93;;;14.50;;
2105;SDS011;1059;52.548;13.408;2022-11-15T13:51:22;18.57;;;14.07;;
2105;SDS011;1059;52.548;13.408;2022-11-15T13:54:00;14.80;;;13.20;;
2105;SDS011;1059;52.548;13.408;2022-11-15T13:56:33;15.07;;;11.70;;
2105;SDS011;1059;52.548;13.408;2022-11-15T13:59:07;18.00;;;13.10;;
2105;SDS011;1059;52.548;13.408;2022-11-15T14:01:35;20.90;;;12.30;;
2105;SDS011;1059;52.548;13.408;2022-11-15T14:04:03;13.90;;;12.40;;
2105;SDS011;1059;52.548;13.408;2022-11-15T14:06:31;15.90;;;12.10;;
2105;SDS011;1059;52.548;13.408;2022-11-15T14:09:00;15.23;;;11.27;;
2105;SDS011;1059;52.548;13.408;2022-11-15T14:11:49;15.73;;;11.50;;
2105;SDS011;1059;52.548;13.408;2022-11-15T14:14:17;18.30;;;12.00;;
2105;SDS011;1059;52.548;13.408;2022-11-15T14:16:48;15.63;;;12.30;;
2105;SDS011;1059;52.548;13.408;2022-11-15T14:19:33;18.40;;;13.70;;
2105;SDS011;1059;52.548;13.408;2022-11-15T14:22:14;14.07;;;12.43;;
2105;SDS011;1059;52.548;13.408;2022-11-15T14:24:46;17.73;;;12.50;;
2105;SDS011;1059;52.548;13.408;2022-11-15T14:27:30;18.97;;;13.53;;
2105;SDS011;1059;52.548;13.408;2022-11-15T14:29:58;14.47;;;12.17;;
2105;SDS011;1059;52.548;13.408;2022-11-15T14:32:26;14.77;;;12.53;;
2105;SDS011;1059;52.548;13.408;2022-11-15T14:34:54;17.40;;;13.57;;
2105;SDS011;1059;52.548;13.408;2022-11-15T14:37:25;14.63;;;12.30;;
2105;SDS011;1059;52.548;13.408;2022-11-15T14:39:53;18.00;;;13.37;;
2105;SDS011;1059;52.548;13.408;2022-11-15T14:42:20;17.30;;;13.97;;
2105;SDS011;1059;52.548;13.408;2022-11-15T14:44:48;16.00;;;13.80;;
2105;SDS011;1059;52.548;13.408;2022-11-15T14:47:16;17.83;;;13.00;;
2105;SDS011;1059;52.548;13.408;2022-11-15T14:49:43;17.60;;;13.50;;
2105;SDS011;1059;52.548;13.408;2022-11-15T14:52:22;18.10;;;14.40;;
2105;SDS011;1059;52.548;13.408;2022-11-15T14:54:52;15.87;;;13.23;;
2105;SDS011;1059;52.548;13.408;2022-11-15T14:57:19;17.53;;;14.50;;
2105;SDS011;1059;52.548;13.408;2022-11-15T14:59:46;17.90;;;14.97;;
2105;SDS011;1059;52.548;13.408;2022-11-15T15:02:15;17.33;;;14.13;;
2105;SDS011;1059;52.548;13.408;2022-11-15T15:04:44;22.17;;;16.30;;
2105;SDS011;1059;52.548;13.408;2022-11-15T15:07:11;20.03;;;15.87;;
2105;SDS011;1059;52.548;13.408;2022-11-15T15:09:39;20.43;;;16.00;;
2105;SDS011;1059;52.548;13.408;2022-11-15T15:12:10;20.30;;;16.77;;
2105;SDS011;1059;52.548;13.408;2022-11-15T15:14:41;22.57;;;15.93;;
2105;SDS011;1059;52.548;13.408;2022-11-15T15:17:08;17.30;;;14.63;;